createdAt,value
2019-02-04T00:01:16.130Z,43.67
2019-02-04T00:03:44.045Z,43.67
2019-02-04T00:06:12.241Z,43.89
2019-02-04T00:08:40.563Z,44.81
2019-02-04T00:11:08.343Z,44.27
2019-02-04T00:13:36.727Z,44.74
2019-02-04T00:16:04.804Z,43.72
2019-02-04T00:18:32.638Z,43.62
2019-02-04T00:21:01.046Z,43.49
2019-02-04T00:23:28.897Z,43.99
2019-02-04T00:25:57.139Z,43.60
2019-02-04T00:28:24.973Z,43.44
2019-02-04T00:30:52.766Z,43.78
2019-02-04T00:33:21.657Z,43.90
2019-02-04T00:35:49.786Z,43.35
2019-02-04T00:38:17.617Z,43.96
2019-02-04T00:40:45.549Z,44.30
2019-02-04T00:43:13.320Z,43.87
2019-02-04T00:45:41.298Z,43.65
2019-02-04T00:48:09.177Z,43.34
2019-02-04T00:50:36.986Z,43.79
2019-02-04T00:53:05.352Z,42.88
2019-02-04T00:55:33.136Z,43.64
2019-02-04T00:58:01.012Z,42.99
2019-02-04T01:00:28.876Z,43.50
2019-02-04T01:02:56.852Z,43.03
2019-02-04T01:05:25.820Z,43.77
2019-02-04T01:07:53.733Z,43.12
2019-02-04T01:10:22.576Z,43.60
2019-02-04T01:12:50.456Z,42.75
2019-02-04T01:15:18.299Z,43.29
2019-02-04T01:17:46.186Z,42.75
2019-02-04T01:20:15.935Z,42.99
2019-02-04T01:22:43.882Z,43.17
2019-02-04T01:25:12.210Z,42.81
2019-02-04T01:27:40.084Z,43.26
2019-02-04T01:30:08.307Z,43.04
2019-02-04T01:32:36.230Z,43.11
2019-02-04T01:35:04.534Z,43.10
2019-02-04T01:37:32.443Z,42.90
2019-02-04T01:40:00.663Z,42.54
2019-02-04T01:42:28.600Z,43.56
2019-02-04T01:44:56.374Z,43.20
2019-02-04T01:47:24.316Z,42.82
2019-02-04T01:49:52.189Z,42.39
2019-02-04T01:52:20.024Z,43.18
2019-02-04T01:54:48.108Z,42.90
2019-02-04T01:57:16.045Z,43.03
2019-02-04T01:59:43.807Z,43.16
2019-02-04T02:02:11.728Z,42.95
2019-02-04T02:04:39.647Z,43.56
2019-02-04T02:07:07.593Z,43.14
2019-02-04T02:09:35.455Z,43.48
2019-02-04T02:12:03.709Z,43.11
2019-02-04T02:14:31.643Z,43.10
2019-02-04T02:16:59.520Z,42.67
2019-02-04T02:19:27.497Z,43.29
2019-02-04T02:21:55.272Z,43.11
2019-02-04T02:24:23.271Z,44.08
2019-02-04T02:26:51.133Z,44.08
2019-02-04T02:29:19.057Z,43.72
2019-02-04T02:31:47.268Z,43.24
2019-02-04T02:34:15.139Z,43.43
2019-02-04T02:36:42.962Z,42.32
2019-02-04T02:39:10.885Z,42.59
2019-02-04T02:41:38.858Z,43.02
2019-02-04T02:44:07.222Z,43.82
2019-02-04T02:46:35.190Z,43.90
2019-02-04T02:49:03.064Z,43.40
2019-02-04T02:51:30.892Z,43.97
2019-02-04T02:53:58.712Z,43.29
2019-02-04T02:56:26.664Z,43.92
2019-02-04T02:58:54.576Z,43.89
2019-02-04T03:01:22.757Z,43.62
2019-02-04T03:03:50.915Z,43.55
2019-02-04T03:06:18.960Z,43.78
2019-02-04T03:08:46.936Z,43.34
2019-02-04T03:11:14.798Z,43.60
2019-02-04T03:13:43.632Z,43.85
2019-02-04T03:16:11.831Z,44.26
2019-02-04T03:18:39.861Z,45.12
2019-02-04T03:21:07.807Z,45.19
2019-02-04T03:23:35.712Z,45.27
2019-02-04T03:26:04.124Z,46.07
2019-02-04T03:28:34.393Z,45.40
2019-02-04T03:31:02.189Z,45.75
2019-02-04T03:33:30.069Z,45.58
2019-02-04T03:35:57.913Z,44.63
2019-02-04T03:38:26.494Z,45.03
2019-02-04T03:40:54.340Z,44.93
2019-02-04T03:43:22.175Z,45.56
2019-02-04T03:45:50.117Z,46.38
2019-02-04T03:48:18.359Z,45.82
2019-02-04T03:50:46.214Z,45.22
2019-02-04T03:53:14.011Z,45.10
2019-02-04T03:55:41.882Z,45.03
2019-02-04T03:58:09.672Z,45.17
2019-02-04T04:00:37.698Z,44.83
2019-02-04T04:03:05.963Z,44.72
2019-02-04T04:05:33.962Z,44.58
2019-02-04T04:08:02.155Z,45.26
2019-02-04T04:10:30.034Z,44.38
2019-02-04T04:12:57.872Z,44.52
2019-02-04T04:15:25.646Z,44.36
2019-02-04T04:17:53.422Z,44.91
2019-02-04T04:20:22.146Z,44.45
2019-02-04T04:22:49.986Z,44.82
2019-02-04T04:25:17.952Z,44.71
2019-02-04T04:27:45.863Z,44.35
2019-02-04T04:30:15.119Z,44.51
2019-02-04T04:32:43.016Z,44.15
2019-02-04T04:35:11.105Z,44.49
2019-02-04T04:37:39.008Z,43.89
2019-02-04T04:40:06.966Z,43.61
2019-02-04T04:42:34.745Z,43.92
2019-02-04T04:45:02.788Z,43.90
2019-02-04T04:47:30.663Z,43.65
2019-02-04T04:49:58.516Z,43.56
2019-02-04T04:52:26.789Z,43.40
2019-02-04T04:54:54.794Z,44.06
2019-02-04T04:57:22.776Z,43.78
2019-02-04T04:59:50.736Z,44.16
2019-02-04T05:02:18.795Z,45.33
2019-02-04T05:04:46.641Z,43.16
2019-02-04T05:07:14.682Z,42.86
2019-02-04T05:09:42.603Z,43.18
2019-02-04T05:12:10.464Z,43.40
2019-02-04T05:14:38.312Z,43.22
2019-02-04T05:17:06.161Z,43.48
2019-02-04T05:19:33.930Z,44.06
2019-02-04T05:22:01.812Z,42.90
2019-02-04T05:24:30.089Z,42.66
2019-02-04T05:26:58.016Z,43.03
2019-02-04T05:29:25.855Z,43.56
2019-02-04T05:31:53.706Z,42.62
2019-02-04T05:34:22.738Z,42.81
2019-02-04T05:36:50.606Z,42.85
2019-02-04T05:39:18.695Z,42.91
2019-02-04T05:41:46.476Z,42.49
2019-02-04T05:44:14.272Z,42.56
2019-02-04T05:46:42.357Z,43.19
2019-02-04T05:49:10.216Z,42.13
2019-02-04T05:51:38.296Z,42.22
2019-02-04T05:54:06.088Z,42.66
2019-02-04T05:56:34.201Z,41.94
2019-02-04T05:59:03.165Z,43.68
2019-02-04T06:01:31.005Z,42.43
2019-02-04T06:03:58.894Z,42.70
2019-02-04T06:06:26.641Z,42.58
2019-02-04T06:08:54.418Z,42.95
2019-02-04T06:11:23.665Z,43.55
2019-02-04T06:13:51.467Z,43.42
2019-02-04T06:16:19.329Z,43.15
2019-02-04T06:18:47.347Z,43.17
2019-02-04T06:21:15.350Z,43.23
2019-02-04T06:23:43.235Z,43.02
2019-02-04T06:26:11.163Z,42.95
2019-02-04T06:28:40.410Z,43.53
2019-02-04T06:31:08.390Z,43.09
2019-02-04T06:33:36.699Z,43.17
2019-02-04T06:36:04.616Z,43.20
2019-02-04T06:38:32.694Z,43.23
2019-02-04T06:41:00.600Z,43.65
2019-02-04T06:43:28.831Z,43.15
2019-02-04T06:45:56.733Z,43.23
2019-02-04T06:48:24.646Z,43.38
2019-02-04T06:50:52.561Z,43.50
2019-02-04T06:53:21.626Z,43.03
2019-02-04T06:55:49.737Z,44.24
2019-02-04T06:58:17.633Z,43.21
2019-02-04T07:00:45.635Z,43.38
2019-02-04T07:03:13.639Z,43.13
2019-02-04T07:05:43.888Z,42.89
2019-02-04T07:08:11.068Z,43.25
2019-02-04T07:10:38.935Z,43.32
2019-02-04T07:13:06.901Z,43.29
2019-02-04T07:15:34.733Z,43.26
2019-02-04T07:18:02.711Z,43.50
2019-02-04T07:20:30.534Z,42.93
2019-02-04T07:22:59.500Z,43.09
2019-02-04T07:25:27.528Z,43.14
2019-02-04T07:27:57.662Z,43.11
2019-02-04T07:30:26.058Z,42.65
2019-02-04T07:32:54.265Z,42.47
2019-02-04T07:35:22.252Z,42.69
2019-02-04T07:37:50.180Z,42.71
2019-02-04T07:40:19.027Z,43.09
2019-02-04T07:42:47.322Z,43.04
2019-02-04T07:45:15.176Z,43.00
2019-02-04T07:47:43.418Z,42.72
2019-02-04T07:50:11.283Z,42.92
2019-02-04T07:52:39.254Z,42.85
2019-02-04T07:55:07.422Z,43.10
2019-02-04T07:57:35.288Z,42.81
2019-02-04T08:00:03.565Z,43.01
2019-02-04T08:02:37.214Z,43.34
2019-02-04T08:05:05.336Z,43.42
2019-02-04T08:07:40.416Z,43.08
2019-02-04T08:10:08.511Z,43.04
2019-02-04T08:12:36.590Z,43.15
2019-02-04T08:15:06.859Z,42.85
2019-02-04T08:17:35.223Z,43.16
2019-02-04T08:20:03.551Z,43.43
2019-02-04T08:22:32.528Z,42.81
2019-02-04T08:25:00.386Z,42.99
2019-02-04T08:27:28.227Z,42.89
2019-02-04T08:29:57.935Z,42.90
2019-02-04T08:32:25.783Z,42.85
2019-02-04T08:34:53.694Z,42.63
2019-02-04T08:37:21.640Z,42.64
2019-02-04T08:39:49.974Z,42.49
2019-02-04T08:42:17.840Z,42.50
2019-02-04T08:44:45.748Z,42.78
2019-02-04T08:47:22.633Z,42.95
2019-02-04T08:49:43.295Z,42.76
2019-02-04T08:52:12.641Z,42.91
2019-02-04T08:54:40.602Z,42.90
2019-02-04T08:57:08.536Z,42.95
2019-02-04T08:59:36.820Z,43.02
2019-02-04T09:02:05.369Z,43.29
2019-02-04T09:04:33.249Z,43.32
2019-02-04T09:07:01.141Z,43.20
2019-02-04T09:09:29.184Z,43.36
2019-02-04T09:11:57.032Z,43.26
2019-02-04T09:14:24.874Z,43.51
2019-02-04T09:16:52.876Z,43.33
2019-02-04T09:19:21.041Z,43.79
2019-02-04T09:21:49.124Z,43.65
2019-02-04T09:24:16.981Z,43.74
2019-02-04T09:26:44.842Z,43.85
2019-02-04T09:29:12.705Z,43.89
2019-02-04T09:31:40.680Z,45.42
2019-02-04T09:34:08.628Z,44.11
2019-02-04T09:36:36.484Z,44.32
2019-02-04T09:39:06.450Z,44.07
2019-02-04T09:41:34.365Z,44.06
2019-02-04T09:44:02.391Z,44.26
2019-02-04T09:46:30.194Z,44.36
2019-02-04T09:48:58.030Z,44.29
2019-02-04T09:51:26.062Z,44.25
2019-02-04T09:53:54.071Z,44.47
2019-02-04T09:56:21.947Z,44.32
2019-02-04T09:58:49.936Z,44.33
2019-02-04T10:01:17.893Z,44.20
2019-02-04T10:03:45.910Z,44.28
2019-02-04T10:06:13.871Z,44.67
2019-02-04T10:08:41.783Z,44.37
2019-02-04T10:11:09.697Z,44.64
2019-02-04T10:13:37.465Z,44.49
2019-02-04T10:16:05.550Z,44.43
2019-02-04T10:18:33.441Z,45.48
2019-02-04T10:21:01.327Z,44.43
2019-02-04T10:23:29.186Z,44.48
2019-02-04T10:25:57.228Z,45.19
2019-02-04T10:28:25.281Z,44.57
2019-02-04T10:30:53.148Z,44.10
2019-02-04T10:33:21.036Z,44.31
2019-02-04T10:35:49.043Z,44.09
2019-02-04T10:38:16.994Z,44.07
2019-02-04T10:40:44.863Z,44.29
2019-02-04T10:43:12.725Z,44.12
2019-02-04T10:45:40.597Z,43.29
2019-02-04T10:48:09.058Z,43.42
2019-02-04T10:50:45.667Z,43.20
2019-02-04T10:53:07.615Z,43.20
2019-02-04T10:55:35.491Z,42.72
2019-02-04T10:58:03.563Z,43.00
2019-02-04T11:00:32.050Z,42.97
2019-02-04T11:02:59.975Z,43.21
2019-02-04T11:05:28.382Z,44.09
2019-02-04T11:07:56.486Z,43.37
2019-02-04T11:10:26.974Z,43.04
2019-02-04T11:12:54.830Z,44.12
2019-02-04T11:15:25.530Z,43.00
2019-02-04T11:17:52.524Z,42.89
2019-02-04T11:20:24.211Z,42.77
2019-02-04T11:22:52.190Z,42.67
2019-02-04T11:25:20.182Z,42.83
2019-02-04T11:27:48.041Z,42.58
2019-02-04T11:30:17.754Z,42.45
2019-02-04T11:32:45.701Z,44.15
2019-02-04T11:35:13.574Z,42.65
2019-02-04T11:37:41.549Z,42.20
2019-02-04T11:40:09.775Z,42.31
2019-02-04T11:42:37.655Z,42.26
2019-02-04T11:45:05.877Z,41.77
2019-02-04T11:47:34.856Z,41.71
2019-02-04T11:50:03.163Z,41.96
2019-02-04T11:52:31.022Z,41.47
2019-02-04T11:54:59.997Z,41.39
2019-02-04T11:57:27.925Z,41.66
2019-02-04T11:59:55.879Z,41.41
2019-02-04T12:02:34.125Z,41.50
2019-02-04T12:04:53.301Z,41.35
2019-02-04T12:07:21.877Z,41.63
2019-02-04T12:09:49.997Z,41.45
2019-02-04T12:12:18.385Z,41.32
2019-02-04T12:14:46.223Z,40.83
2019-02-04T12:17:14.300Z,41.03
2019-02-04T12:19:42.126Z,40.72
2019-02-04T12:22:10.269Z,40.79
2019-02-04T12:24:38.087Z,40.44
2019-02-04T12:27:05.881Z,40.36
2019-02-04T12:29:33.905Z,40.38
2019-02-04T12:32:01.751Z,40.76
2019-02-04T12:34:29.745Z,41.72
2019-02-04T12:36:57.758Z,41.29
2019-02-04T12:39:25.920Z,40.21
2019-02-04T12:41:53.764Z,40.67
2019-02-04T12:44:21.623Z,40.87
2019-02-04T12:46:50.519Z,40.10
2019-02-04T12:49:20.065Z,40.03
2019-02-04T12:51:48.112Z,39.35
2019-02-04T12:54:15.907Z,40.03
2019-02-04T12:56:43.838Z,39.38
2019-02-04T12:59:12.152Z,39.79
2019-02-04T13:01:40.562Z,39.69
2019-02-04T13:04:10.845Z,39.89
2019-02-04T13:06:38.794Z,39.73
2019-02-04T13:09:08.768Z,39.97
2019-02-04T13:11:36.652Z,39.31
2019-02-04T13:14:04.531Z,40.06
2019-02-04T13:16:32.424Z,39.30
2019-02-04T13:19:01.610Z,40.44
2019-02-04T13:21:29.537Z,40.40
2019-02-04T13:23:57.336Z,39.43
2019-02-04T13:26:25.536Z,39.98
2019-02-04T13:28:54.794Z,40.27
2019-02-04T13:31:22.654Z,39.49
2019-02-04T13:33:50.659Z,39.19
2019-02-04T13:36:18.717Z,39.20
2019-02-04T13:38:47.658Z,38.95
2019-02-04T13:41:15.662Z,39.58
2019-02-04T13:43:43.617Z,39.47
2019-02-04T13:46:11.650Z,38.90
2019-02-04T13:48:40.171Z,38.80
2019-02-04T13:51:08.036Z,39.45
2019-02-04T13:53:35.903Z,39.21
2019-02-04T13:56:03.857Z,39.05
2019-02-04T13:58:33.081Z,39.36
2019-02-04T14:01:02.546Z,39.25
2019-02-04T14:03:30.459Z,38.41
2019-02-04T14:05:58.365Z,38.95
2019-02-04T14:08:26.191Z,39.00
2019-02-04T14:10:54.148Z,38.95
2019-02-04T14:13:22.436Z,38.93
2019-02-04T14:15:50.298Z,38.55
2019-02-04T14:18:18.285Z,37.87
2019-02-04T14:20:46.149Z,38.22
2019-02-04T14:23:14.326Z,38.18
2019-02-04T14:25:43.344Z,37.56
2019-02-04T14:28:11.234Z,37.83
2019-02-04T14:30:39.183Z,38.31
2019-02-04T14:33:07.124Z,38.50
2019-02-04T14:35:35.079Z,38.03
2019-02-04T14:38:03.069Z,37.93
2019-02-04T14:40:32.059Z,38.77
2019-02-04T14:43:05.080Z,38.55
2019-02-04T14:45:56.972Z,38.60
2019-02-04T14:48:30.245Z,37.95
2019-02-04T14:51:26.499Z,38.16
2019-02-04T14:54:12.496Z,37.98
2019-02-04T14:57:02.453Z,37.66
2019-02-04T14:59:35.598Z,37.91
2019-02-04T15:02:41.140Z,37.60
2019-02-04T15:05:34.388Z,37.38
2019-02-04T15:08:32.993Z,38.05
2019-02-04T15:11:01.036Z,37.86
2019-02-04T15:13:36.986Z,37.87
2019-02-04T15:16:22.717Z,37.68
2019-02-04T15:19:09.070Z,37.38
2019-02-04T15:22:14.445Z,36.89
2019-02-04T15:24:59.059Z,36.94
2019-02-04T15:27:55.574Z,37.05
2019-02-04T15:30:36.727Z,37.31
2019-02-04T15:33:12.934Z,37.08
2019-02-04T15:36:09.210Z,37.45
2019-02-04T15:38:52.300Z,36.92
2019-02-04T15:41:27.125Z,37.41
2019-02-04T15:44:14.931Z,37.24
2019-02-04T15:47:02.230Z,37.25
2019-02-04T15:50:07.989Z,36.94
2019-02-04T15:52:45.204Z,37.16
2019-02-04T15:55:08.551Z,37.05
2019-02-04T15:57:36.395Z,37.67
2019-02-04T16:00:04.918Z,37.54
2019-02-04T16:02:32.982Z,37.39
2019-02-04T16:05:00.945Z,38.10
2019-02-04T16:07:29.348Z,37.19
2019-02-04T16:09:57.614Z,38.49
2019-02-04T16:12:25.683Z,37.43
2019-02-04T16:14:53.519Z,37.89
2019-02-04T16:17:21.433Z,37.42
2019-02-04T16:19:49.441Z,37.28
2019-02-04T16:22:17.433Z,37.59
2019-02-04T16:24:45.639Z,37.58
2019-02-04T16:27:13.714Z,37.90
2019-02-04T16:29:41.702Z,37.50
2019-02-04T16:32:10.229Z,37.28
2019-02-04T16:34:38.337Z,37.40
2019-02-04T16:37:06.148Z,37.23
2019-02-04T16:39:34.152Z,37.16
2019-02-04T16:42:02.320Z,37.21
2019-02-04T16:44:30.238Z,36.93
2019-02-04T16:46:58.011Z,37.00
2019-02-04T16:49:28.069Z,37.58
2019-02-04T16:51:56.901Z,37.50
2019-02-04T16:54:25.070Z,37.55
2019-02-04T16:56:52.984Z,37.24
2019-02-04T16:59:21.275Z,37.69
2019-02-04T17:01:52.784Z,37.46
2019-02-04T17:04:23.403Z,37.69
2019-02-04T17:06:51.135Z,37.61
2019-02-04T17:09:18.864Z,37.99
2019-02-04T17:11:46.649Z,37.53
2019-02-04T17:14:14.744Z,37.67
2019-02-04T17:16:42.478Z,37.56
2019-02-04T17:19:10.217Z,37.59
2019-02-04T17:21:38.068Z,36.76
2019-02-04T17:24:05.883Z,37.23
2019-02-04T17:26:33.619Z,37.28
2019-02-04T17:29:01.405Z,37.42
2019-02-04T17:31:30.527Z,37.87
2019-02-04T17:33:58.258Z,37.39
2019-02-04T17:36:26.037Z,37.95
2019-02-04T17:38:54.023Z,37.70
2019-02-04T17:41:23.898Z,37.43
2019-02-04T17:43:55.035Z,37.56
2019-02-04T17:46:23.234Z,37.63
2019-02-04T17:48:50.966Z,37.55
2019-02-04T17:51:18.680Z,37.22
2019-02-04T17:53:46.411Z,35.71
2019-02-04T17:56:14.199Z,36.25
2019-02-04T17:58:41.927Z,37.06
2019-02-04T18:01:09.720Z,37.00
2019-02-04T18:03:37.947Z,36.12
2019-02-04T18:06:05.742Z,36.81
2019-02-04T18:08:33.580Z,36.93
2019-02-04T18:11:01.368Z,37.24
2019-02-04T18:13:29.178Z,37.19
2019-02-04T18:15:57.010Z,36.70
2019-02-04T18:18:24.871Z,36.43
2019-02-04T18:20:52.730Z,37.47
2019-02-04T18:23:23.498Z,36.80
2019-02-04T18:25:51.730Z,37.01
2019-02-04T18:28:19.594Z,37.78
2019-02-04T18:30:47.319Z,37.67
2019-02-04T18:33:15.125Z,37.05
2019-02-04T18:35:43.030Z,36.71
2019-02-04T18:38:10.809Z,36.87
2019-02-04T18:40:38.559Z,36.28
2019-02-04T18:43:06.415Z,36.54
2019-02-04T18:45:34.667Z,37.11
2019-02-04T18:48:02.499Z,37.56
2019-02-04T18:50:30.579Z,37.22
2019-02-04T18:52:58.419Z,36.63
2019-02-04T18:55:27.282Z,37.05
2019-02-04T18:57:55.278Z,37.25
2019-02-04T19:00:23.932Z,37.57
2019-02-04T19:02:51.927Z,37.47
2019-02-04T19:05:21.427Z,36.95
2019-02-04T19:07:51.615Z,37.39
2019-02-04T19:10:19.901Z,37.81
2019-02-04T19:12:47.662Z,37.66
2019-02-04T19:15:16.136Z,37.28
2019-02-04T19:17:43.954Z,37.78
2019-02-04T19:20:12.684Z,38.26
2019-02-04T19:22:40.434Z,37.29
2019-02-04T19:25:08.703Z,37.94
2019-02-04T19:27:36.883Z,37.23
2019-02-04T19:30:05.766Z,37.38
2019-02-04T19:32:33.555Z,38.04
2019-02-04T19:35:01.277Z,37.93
2019-02-04T19:37:29.622Z,37.83
2019-02-04T19:39:57.562Z,37.79
2019-02-04T19:42:25.459Z,38.17
2019-02-04T19:44:54.862Z,38.26
2019-02-04T19:47:25.504Z,38.19
2019-02-04T19:49:53.240Z,38.36
2019-02-04T19:52:21.049Z,38.31
2019-02-04T19:54:48.778Z,38.15
2019-02-04T19:57:16.516Z,38.11
2019-02-04T19:59:44.364Z,38.21
2019-02-04T20:02:12.211Z,38.31
2019-02-04T20:04:40.074Z,38.29
2019-02-04T20:07:08.043Z,38.25
2019-02-04T20:09:36.276Z,38.43
2019-02-04T20:12:04.031Z,37.61
2019-02-04T20:14:32.176Z,37.99
2019-02-04T20:17:00.015Z,38.53
2019-02-04T20:19:27.797Z,38.50
2019-02-04T20:21:55.523Z,38.18
2019-02-04T20:24:32.844Z,38.10
2019-02-04T20:26:55.992Z,37.70
2019-02-04T20:29:23.750Z,38.11
2019-02-04T20:31:51.520Z,38.95
2019-02-04T20:34:19.265Z,38.84
2019-02-04T20:36:47.080Z,38.72
2019-02-04T20:39:15.470Z,38.66
2019-02-04T20:41:43.647Z,37.93
2019-02-04T20:44:12.763Z,38.09
2019-02-04T20:46:40.582Z,38.47
2019-02-04T20:49:08.384Z,38.27
2019-02-04T20:51:36.206Z,37.76
2019-02-04T20:54:04.589Z,38.07
2019-02-04T20:56:33.967Z,38.13
2019-02-04T20:59:02.335Z,37.55
2019-02-04T21:01:30.068Z,39.13
2019-02-04T21:03:57.832Z,38.34
2019-02-04T21:06:37.265Z,38.34
2019-02-04T21:09:06.808Z,38.56
2019-02-04T21:11:36.663Z,38.51
2019-02-04T21:14:05.881Z,38.13
2019-02-04T21:16:33.663Z,37.91
2019-02-04T21:19:01.486Z,38.47
2019-02-04T21:21:29.284Z,38.70
2019-02-04T21:24:01.055Z,39.04
2019-02-04T21:26:28.846Z,38.54
2019-02-04T21:28:56.951Z,38.66
2019-02-04T21:31:24.706Z,38.42
2019-02-04T21:33:52.472Z,38.62
2019-02-04T21:36:20.219Z,38.61
2019-02-04T21:38:48.414Z,37.85
2019-02-04T21:41:23.647Z,38.30
2019-02-04T21:43:51.593Z,38.58
2019-02-04T21:46:19.484Z,38.91
2019-02-04T21:48:47.326Z,38.38
2019-02-04T21:51:17.874Z,38.91
2019-02-04T21:53:45.722Z,38.80
2019-02-04T21:56:13.846Z,38.73
2019-02-04T21:58:41.747Z,39.12
2019-02-04T22:01:09.980Z,38.81
2019-02-04T22:03:37.718Z,38.78
2019-02-04T22:06:05.423Z,39.07
2019-02-04T22:08:58.241Z,38.72
2019-02-04T22:11:35.006Z,38.79
2019-02-04T22:14:03.753Z,38.93
2019-02-04T22:16:32.180Z,38.87
2019-02-04T22:19:05.085Z,39.26
2019-02-04T22:21:45.269Z,38.54
2019-02-04T22:27:06.689Z,38.93
2019-02-04T22:29:34.495Z,38.81
2019-02-04T22:32:02.283Z,39.11
2019-02-04T22:34:30.287Z,39.28
2019-02-04T22:36:58.026Z,39.13
2019-02-04T22:39:26.031Z,39.13
2019-02-04T22:41:53.873Z,39.13
2019-02-04T22:44:21.691Z,39.28
2019-02-04T22:46:49.433Z,39.43
2019-02-04T22:49:17.211Z,39.28
2019-02-04T22:51:44.939Z,39.65
2019-02-04T22:54:12.778Z,38.98
2019-02-04T22:56:40.587Z,39.38
2019-02-04T22:59:19.037Z,39.22
2019-02-04T23:01:48.392Z,39.72
2019-02-04T23:04:16.181Z,39.40
2019-02-04T23:06:44.292Z,39.71
2019-02-04T23:09:12.046Z,39.63
2019-02-04T23:11:39.767Z,39.66
2019-02-04T23:14:07.528Z,39.68
2019-02-04T23:16:35.295Z,39.79
2019-02-04T23:19:03.096Z,39.73
2019-02-04T23:21:30.809Z,39.84
2019-02-04T23:24:04.057Z,39.92
2019-02-04T23:26:31.836Z,39.86
2019-02-04T23:28:59.548Z,39.50
2019-02-04T23:31:27.498Z,39.91
2019-02-04T23:33:55.347Z,39.69
2019-02-04T23:36:41.520Z,39.74
2019-02-04T23:39:09.253Z,39.97
2019-02-04T23:41:37.079Z,40.23
2019-02-04T23:44:04.949Z,39.87
2019-02-04T23:46:32.699Z,39.96
2019-02-04T23:49:00.431Z,40.39
2019-02-04T23:51:28.362Z,41.08
2019-02-04T23:53:56.086Z,40.16
2019-02-04T23:56:23.836Z,40.54
2019-02-04T23:58:51.547Z,40.00
